createdAt,value
2018-03-28T00:01:35.954Z,5.13
2018-03-28T00:04:02.184Z,5.43
2018-03-28T00:06:28.476Z,5.77
2018-03-28T00:08:54.736Z,5.10
2018-03-28T00:11:21.004Z,5.40
2018-03-28T00:13:47.186Z,5.57
2018-03-28T00:16:14.139Z,4.87
2018-03-28T00:18:40.359Z,5.53
2018-03-28T00:21:06.608Z,4.97
2018-03-28T00:23:32.801Z,4.07
2018-03-28T00:25:59.790Z,5.00
2018-03-28T00:28:25.999Z,4.50
2018-03-28T00:30:52.218Z,4.57
2018-03-28T00:33:19.541Z,5.63
2018-03-28T00:35:45.794Z,5.97
2018-03-28T00:38:12.787Z,5.83
2018-03-28T00:40:38.942Z,6.60
2018-03-28T00:43:05.191Z,6.30
2018-03-28T00:45:32.282Z,7.50
2018-03-28T00:47:58.513Z,6.80
2018-03-28T00:50:24.721Z,6.70
2018-03-28T00:52:50.936Z,7.00
2018-03-28T00:55:17.164Z,7.00
2018-03-28T00:57:43.427Z,8.20
2018-03-28T01:00:09.637Z,7.23
2018-03-28T01:02:35.834Z,8.40
2018-03-28T01:05:02.830Z,7.73
2018-03-28T01:07:29.081Z,8.30
2018-03-28T01:09:55.292Z,8.33
2018-03-28T01:12:21.534Z,8.03
2018-03-28T01:14:48.760Z,7.60
2018-03-28T01:17:15.004Z,7.67
2018-03-28T01:19:41.249Z,7.20
2018-03-28T01:22:07.484Z,7.70
2018-03-28T01:24:33.741Z,7.70
2018-03-28T01:26:59.975Z,7.90
2018-03-28T01:29:26.236Z,7.13
2018-03-28T01:31:52.454Z,7.53
2018-03-28T01:34:18.684Z,7.00
2018-03-28T01:36:44.986Z,7.50
2018-03-28T01:39:11.228Z,6.93
2018-03-28T01:41:37.472Z,7.20
2018-03-28T01:44:03.691Z,7.70
2018-03-28T01:46:29.930Z,7.40
2018-03-28T01:48:56.133Z,6.70
2018-03-28T01:51:22.394Z,7.20
2018-03-28T01:53:48.613Z,7.53
2018-03-28T01:56:14.821Z,7.17
2018-03-28T01:58:41.010Z,7.53
2018-03-28T02:01:07.271Z,6.90
2018-03-28T02:03:33.550Z,6.13
2018-03-28T02:05:59.820Z,6.40
2018-03-28T02:08:26.051Z,5.40
2018-03-28T02:10:52.270Z,6.27
2018-03-28T02:13:19.249Z,6.00
2018-03-28T02:15:45.465Z,4.90
2018-03-28T02:18:11.644Z,5.27
2018-03-28T02:20:38.655Z,5.73
2018-03-28T02:23:04.881Z,5.70
2018-03-28T02:25:31.095Z,5.57
2018-03-28T02:27:57.376Z,5.90
2018-03-28T02:30:23.567Z,5.47
2018-03-28T02:32:49.804Z,5.20
2018-03-28T02:35:16.053Z,5.20
2018-03-28T02:37:42.285Z,5.73
2018-03-28T02:40:08.542Z,4.73
2018-03-28T02:42:34.791Z,5.00
2018-03-28T02:45:01.045Z,5.50
2018-03-28T02:47:27.303Z,4.43
2018-03-28T02:49:53.516Z,4.73
2018-03-28T02:52:19.750Z,5.00
2018-03-28T02:54:46.005Z,4.13
2018-03-28T02:57:12.948Z,4.97
2018-03-28T02:59:39.909Z,4.17
2018-03-28T03:02:06.174Z,4.20
2018-03-28T03:04:32.390Z,4.17
2018-03-28T03:06:59.671Z,3.60
2018-03-28T03:09:25.915Z,3.77
2018-03-28T03:11:52.889Z,3.57
2018-03-28T03:14:19.102Z,3.77
2018-03-28T03:16:45.401Z,4.20
2018-03-28T03:19:11.605Z,3.87
2018-03-28T03:21:37.812Z,3.70
2018-03-28T03:24:04.008Z,4.47
2018-03-28T03:26:30.963Z,4.80
2018-03-28T03:28:57.947Z,4.43
2018-03-28T03:31:24.178Z,4.67
2018-03-28T03:33:50.413Z,5.30
2018-03-28T03:36:16.661Z,4.53
2018-03-28T03:38:42.984Z,4.80
2018-03-28T03:41:09.204Z,4.80
2018-03-28T03:43:35.454Z,4.97
2018-03-28T03:46:01.714Z,4.70
2018-03-28T03:48:27.941Z,5.37
2018-03-28T03:50:54.163Z,4.97
2018-03-28T03:53:21.124Z,5.37
2018-03-28T03:55:47.328Z,5.60
2018-03-28T03:58:14.329Z,5.77
2018-03-28T04:00:42.543Z,6.10
2018-03-28T04:03:09.505Z,6.00
2018-03-28T04:05:36.462Z,6.23
2018-03-28T04:08:07.345Z,7.00
2018-03-28T04:10:33.588Z,6.07
2018-03-28T04:12:59.810Z,5.30
2018-03-28T04:15:26.083Z,5.90
2018-03-28T04:17:52.373Z,6.13
2018-03-28T04:20:18.591Z,5.90
2018-03-28T04:22:44.893Z,6.17
2018-03-28T04:25:11.100Z,6.50
2018-03-28T04:27:37.313Z,6.60
2018-03-28T04:30:03.662Z,5.63
2018-03-28T04:32:29.870Z,5.50
2018-03-28T04:34:56.869Z,5.83
2018-03-28T04:37:23.070Z,5.50
2018-03-28T04:39:49.269Z,4.73
2018-03-28T04:42:16.221Z,5.50
2018-03-28T04:44:42.474Z,5.10
2018-03-28T04:47:08.683Z,4.60
2018-03-28T04:49:34.959Z,4.90
2018-03-28T04:52:01.233Z,5.17
2018-03-28T04:54:27.487Z,4.20
2018-03-28T04:56:53.718Z,5.53
2018-03-28T04:59:19.950Z,4.33
2018-03-28T05:01:46.156Z,4.70
2018-03-28T05:04:12.416Z,4.90
2018-03-28T05:06:38.600Z,4.30
2018-03-28T05:09:04.891Z,4.77
2018-03-28T05:11:31.221Z,4.00
2018-03-28T05:13:57.514Z,4.13
2018-03-28T05:16:23.757Z,4.17
2018-03-28T05:18:50.015Z,4.70
2018-03-28T05:21:16.253Z,4.53
2018-03-28T05:23:43.260Z,3.77
2018-03-28T05:26:09.533Z,3.77
2018-03-28T05:28:36.518Z,3.47
2018-03-28T05:31:02.756Z,3.87
2018-03-28T05:33:29.048Z,3.63
2018-03-28T05:35:55.271Z,4.23
2018-03-28T05:38:21.493Z,3.70
2018-03-28T05:40:48.500Z,3.70
2018-03-28T05:43:14.722Z,3.50
2018-03-28T05:45:40.960Z,3.97
2018-03-28T05:48:07.223Z,4.00
2018-03-28T05:50:34.216Z,4.00
2018-03-28T05:53:00.436Z,3.63
2018-03-28T05:55:27.743Z,3.43
2018-03-28T05:57:54.734Z,3.97
2018-03-28T06:00:20.978Z,3.30
2018-03-28T06:02:47.199Z,4.27
2018-03-28T06:05:13.412Z,4.53
2018-03-28T06:07:39.621Z,5.50
2018-03-28T06:10:05.897Z,5.03
2018-03-28T06:12:32.139Z,4.17
2018-03-28T06:14:58.379Z,3.57
2018-03-28T06:17:24.655Z,4.57
2018-03-28T06:19:50.953Z,4.80
2018-03-28T06:22:17.906Z,4.80
2018-03-28T06:24:44.164Z,4.83
2018-03-28T06:27:10.403Z,5.20
2018-03-28T06:29:36.585Z,5.17
2018-03-28T06:32:02.841Z,4.93
2018-03-28T06:34:29.088Z,4.47
2018-03-28T06:36:55.275Z,4.77
2018-03-28T06:39:22.283Z,5.67
2018-03-28T06:41:48.509Z,5.00
2018-03-28T06:44:15.531Z,6.00
2018-03-28T06:46:41.776Z,5.40
2018-03-28T06:49:08.052Z,6.10
2018-03-28T06:51:35.056Z,5.10
2018-03-28T06:54:01.285Z,5.70
2018-03-28T06:56:27.632Z,5.20
2018-03-28T06:58:54.651Z,5.40
2018-03-28T07:01:21.944Z,5.13
2018-03-28T07:03:48.975Z,4.70
2018-03-28T07:06:15.196Z,4.87
2018-03-28T07:08:41.399Z,4.50
2018-03-28T07:11:07.669Z,4.87
2018-03-28T07:13:34.643Z,4.57
2018-03-28T07:16:00.863Z,5.17
2018-03-28T07:18:27.152Z,4.43
2018-03-28T07:20:53.331Z,3.70
2018-03-28T07:23:22.768Z,4.10
2018-03-28T07:25:49.121Z,3.33
2018-03-28T07:28:16.085Z,4.10
2018-03-28T07:30:42.333Z,3.90
2018-03-28T07:33:08.598Z,3.70
2018-03-28T07:35:34.857Z,3.80
2018-03-28T07:38:01.095Z,4.20
2018-03-28T07:40:28.119Z,3.40
2018-03-28T07:42:54.326Z,5.00
2018-03-28T07:45:20.524Z,3.07
2018-03-28T07:47:46.750Z,4.10
2018-03-28T07:50:12.986Z,3.07
2018-03-28T07:52:39.192Z,3.77
2018-03-28T07:55:05.447Z,2.90
2018-03-28T07:57:31.712Z,3.00
2018-03-28T07:59:57.914Z,3.10
2018-03-28T08:02:24.112Z,2.90
2018-03-28T08:04:50.327Z,3.40
2018-03-28T08:07:17.266Z,2.60
2018-03-28T08:09:43.460Z,3.50
2018-03-28T08:12:09.713Z,2.50
2018-03-28T08:14:35.981Z,2.47
2018-03-28T08:17:02.229Z,2.70
2018-03-28T08:19:28.436Z,1.80
2018-03-28T08:21:54.652Z,2.37
2018-03-28T08:24:20.961Z,1.80
2018-03-28T08:26:47.911Z,2.23
2018-03-28T08:29:27.423Z,3.20
2018-03-28T08:31:53.645Z,1.50
2018-03-28T08:34:19.896Z,2.03
2018-03-28T08:36:46.858Z,1.90
2018-03-28T08:39:13.096Z,2.00
2018-03-28T08:41:39.399Z,1.70
2018-03-28T08:44:05.656Z,1.43
2018-03-28T08:46:31.876Z,1.77
2018-03-28T08:48:58.150Z,1.43
2018-03-28T08:51:24.404Z,1.70
2018-03-28T08:53:50.626Z,1.90
2018-03-28T08:56:16.896Z,1.30
2018-03-28T08:58:43.113Z,1.23
2018-03-28T09:01:09.349Z,1.10
2018-03-28T09:03:35.556Z,1.57
2018-03-28T09:06:02.593Z,1.90
2018-03-28T09:08:28.834Z,1.50
2018-03-28T09:10:55.820Z,1.40
2018-03-28T09:13:22.044Z,1.87
2018-03-28T09:18:45.034Z,1.20
2018-03-28T09:21:11.273Z,1.50
2018-03-28T09:23:37.491Z,1.80
2018-03-28T09:26:03.805Z,1.17
2018-03-28T09:28:30.080Z,1.20
2018-03-28T09:30:57.080Z,2.00
2018-03-28T09:33:23.304Z,1.27
2018-03-28T09:35:49.522Z,1.30
2018-03-28T09:38:15.761Z,1.83
2018-03-28T09:40:42.038Z,1.17
2018-03-28T09:43:08.219Z,1.60
2018-03-28T09:45:34.466Z,1.80
2018-03-28T09:48:00.665Z,1.47
2018-03-28T09:50:26.932Z,1.30
2018-03-28T09:52:53.173Z,1.20
2018-03-28T09:55:19.422Z,1.20
2018-03-28T09:57:46.391Z,1.70
2018-03-28T10:00:18.841Z,1.10
2018-03-28T10:02:45.859Z,1.43
2018-03-28T10:05:12.127Z,2.20
2018-03-28T10:07:38.319Z,1.93
2018-03-28T10:10:04.610Z,3.67
2018-03-28T10:12:30.868Z,5.50
2018-03-28T10:14:57.095Z,5.80
2018-03-28T10:17:23.299Z,2.60
2018-03-28T10:19:49.554Z,2.40
2018-03-28T10:22:15.764Z,2.40
2018-03-28T10:24:41.979Z,2.17
2018-03-28T10:27:08.188Z,2.10
2018-03-28T10:29:34.441Z,2.60
2018-03-28T10:32:00.691Z,2.20
2018-03-28T10:34:26.893Z,2.20
2018-03-28T10:36:53.128Z,2.73
2018-03-28T10:39:19.370Z,1.60
2018-03-28T10:41:45.622Z,1.93
2018-03-28T10:44:11.869Z,1.90
2018-03-28T10:46:38.119Z,2.10
2018-03-28T10:49:06.486Z,1.70
2018-03-28T10:51:32.725Z,1.90
2018-03-28T10:53:58.949Z,2.20
2018-03-28T10:56:25.242Z,2.40
2018-03-28T10:58:52.214Z,2.10
2018-03-28T11:01:18.461Z,2.73
2018-03-28T11:03:44.699Z,2.23
2018-03-28T11:06:10.921Z,2.60
2018-03-28T11:08:37.121Z,2.83
2018-03-28T11:11:03.384Z,1.97
2018-03-28T11:13:29.597Z,2.47
2018-03-28T11:15:55.869Z,2.57
2018-03-28T11:18:22.087Z,2.70
2018-03-28T11:20:48.339Z,2.03
2018-03-28T11:23:14.545Z,2.67
2018-03-28T11:25:40.756Z,2.50
2018-03-28T11:28:06.953Z,2.17
2018-03-28T11:30:34.276Z,2.33
2018-03-28T11:33:00.511Z,3.03
2018-03-28T11:35:27.582Z,2.07
2018-03-28T11:37:53.883Z,2.50
2018-03-28T11:40:20.135Z,2.07
2018-03-28T11:42:46.347Z,2.50
2018-03-28T11:45:12.556Z,3.00
2018-03-28T11:47:38.850Z,2.10
2018-03-28T11:50:05.041Z,2.57
2018-03-28T11:52:31.244Z,2.23
2018-03-28T11:54:57.527Z,2.13
2018-03-28T11:57:23.748Z,2.37
2018-03-28T11:59:49.995Z,2.33
2018-03-28T12:02:18.268Z,3.47
2018-03-28T12:04:44.549Z,2.90
2018-03-28T12:07:11.561Z,2.20
2018-03-28T12:09:37.773Z,3.20
2018-03-28T12:12:03.999Z,2.30
2018-03-28T12:14:30.233Z,1.77
2018-03-28T12:16:56.459Z,2.20
2018-03-28T12:19:22.697Z,2.20
2018-03-28T12:21:52.526Z,2.63
2018-03-28T12:24:18.798Z,2.30
2018-03-28T12:26:45.131Z,2.13
2018-03-28T12:29:11.331Z,1.73
2018-03-28T12:31:37.571Z,2.57
2018-03-28T12:34:04.535Z,2.53
2018-03-28T12:36:30.734Z,2.13
2018-03-28T12:38:57.742Z,2.80
2018-03-28T12:41:23.979Z,2.10
2018-03-28T12:43:50.171Z,1.97
2018-03-28T12:46:16.451Z,2.00
2018-03-28T12:48:42.678Z,2.20
2018-03-28T12:51:08.897Z,1.97
2018-03-28T12:53:35.108Z,1.63
2018-03-28T12:56:01.462Z,2.07
2018-03-28T12:58:27.686Z,2.40
2018-03-28T13:00:53.919Z,2.03
2018-03-28T13:03:20.175Z,2.00
2018-03-28T13:05:46.423Z,2.43
2018-03-28T13:08:12.661Z,1.80
2018-03-28T13:10:39.947Z,1.93
2018-03-28T13:13:06.186Z,1.90
2018-03-28T13:15:32.419Z,1.63
2018-03-28T13:17:58.614Z,1.90
2018-03-28T13:20:24.855Z,1.83
2018-03-28T13:22:51.112Z,1.73
2018-03-28T13:25:17.307Z,1.87
2018-03-28T13:27:43.618Z,1.70
2018-03-28T13:30:09.860Z,1.53
2018-03-28T13:32:36.048Z,1.50
2018-03-28T13:35:02.290Z,1.63
2018-03-28T13:37:28.487Z,1.30
2018-03-28T13:39:56.529Z,1.10
2018-03-28T13:42:22.770Z,1.30
2018-03-28T13:44:49.012Z,1.67
2018-03-28T13:47:16.015Z,1.20
2018-03-28T13:49:42.257Z,1.27
2018-03-28T13:52:08.449Z,1.20
2018-03-28T13:54:34.664Z,1.43
2018-03-28T13:57:00.954Z,1.30
2018-03-28T13:59:27.971Z,1.20
2018-03-28T14:01:54.193Z,1.50
2018-03-28T14:04:20.423Z,1.87
2018-03-28T14:06:46.685Z,1.80
2018-03-28T14:09:12.965Z,1.40
2018-03-28T14:11:39.212Z,1.20
2018-03-28T14:14:06.463Z,1.43
2018-03-28T14:16:32.665Z,1.40
2018-03-28T14:18:58.887Z,1.33
2018-03-28T14:21:25.089Z,1.07
2018-03-28T14:23:52.029Z,1.80
2018-03-28T14:26:18.262Z,1.40
2018-03-28T14:28:45.245Z,1.10
2018-03-28T14:31:11.575Z,1.40
2018-03-28T14:33:37.799Z,1.47
2018-03-28T14:36:04.352Z,0.90
2018-03-28T14:38:31.056Z,1.17
2018-03-28T14:40:57.298Z,1.60
2018-03-28T14:43:23.545Z,1.10
2018-03-28T14:45:49.764Z,1.03
2018-03-28T14:48:15.984Z,1.23
2018-03-28T14:50:42.237Z,1.20
2018-03-28T14:53:08.485Z,1.43
2018-03-28T14:55:34.774Z,1.20
2018-03-28T14:58:01.075Z,1.13
2018-03-28T15:00:27.350Z,1.03
2018-03-28T15:02:53.570Z,1.20
2018-03-28T15:05:19.820Z,1.60
2018-03-28T15:07:46.117Z,1.20
2018-03-28T15:10:12.365Z,0.83
2018-03-28T15:12:38.584Z,1.17
2018-03-28T15:15:04.928Z,1.00
2018-03-28T15:17:31.146Z,1.30
2018-03-28T15:19:57.399Z,1.03
2018-03-28T15:22:23.627Z,1.00
2018-03-28T15:24:49.844Z,1.23
2018-03-28T15:27:16.069Z,0.90
2018-03-28T15:29:42.328Z,0.77
2018-03-28T15:32:09.283Z,1.10
2018-03-28T15:34:36.263Z,1.30
2018-03-28T15:37:06.321Z,1.10
2018-03-28T15:39:33.297Z,1.10
2018-03-28T15:41:59.573Z,0.90
2018-03-28T15:44:25.800Z,1.37
2018-03-28T15:46:52.032Z,1.13
2018-03-28T15:49:18.268Z,1.00
2018-03-28T15:51:44.475Z,1.03
2018-03-28T15:54:10.674Z,1.00
2018-03-28T15:56:40.611Z,0.97
2018-03-28T15:59:06.876Z,1.20
2018-03-28T16:01:33.088Z,1.20
2018-03-28T16:03:59.344Z,1.40
2018-03-28T16:06:25.568Z,0.80
2018-03-28T16:08:51.816Z,0.80
2018-03-28T16:11:18.096Z,1.30
2018-03-28T16:13:44.398Z,1.20
2018-03-28T16:16:10.638Z,0.87
2018-03-28T16:18:36.916Z,0.70
2018-03-28T16:21:03.101Z,1.33
2018-03-28T16:23:29.327Z,1.07
2018-03-28T16:25:55.545Z,0.90
2018-03-28T16:28:21.771Z,1.07
2018-03-28T16:30:48.034Z,0.87
2018-03-28T16:33:14.246Z,1.50
2018-03-28T16:35:40.490Z,0.90
2018-03-28T16:38:06.793Z,1.03
2018-03-28T16:40:33.076Z,1.87
2018-03-28T16:42:59.329Z,1.83
2018-03-28T16:45:25.500Z,1.30
2018-03-28T16:47:51.754Z,0.83
2018-03-28T16:50:18.712Z,0.90
2018-03-28T16:52:45.707Z,1.20
2018-03-28T16:55:11.977Z,1.03
2018-03-28T16:57:38.948Z,1.20
2018-03-28T17:00:05.191Z,0.90
2018-03-28T17:02:31.419Z,1.00
2018-03-28T17:04:57.674Z,1.03
2018-03-28T17:07:23.933Z,1.13
2018-03-28T17:09:50.898Z,1.30
2018-03-28T17:12:17.141Z,1.60
2018-03-28T17:14:43.392Z,1.57
2018-03-28T17:17:09.678Z,1.53
2018-03-28T17:19:36.635Z,1.60
2018-03-28T17:22:02.881Z,1.60
2018-03-28T17:24:29.092Z,1.13
2018-03-28T17:26:55.386Z,1.37
2018-03-28T17:29:21.588Z,1.60
2018-03-28T17:31:47.813Z,1.97
2018-03-28T17:34:14.049Z,1.80
2018-03-28T17:36:40.278Z,1.77
2018-03-28T17:39:06.602Z,1.50
2018-03-28T17:41:32.930Z,1.67
2018-03-28T17:43:59.129Z,1.70
2018-03-28T17:46:25.371Z,2.13
2018-03-28T17:48:51.620Z,2.13
2018-03-28T17:51:17.891Z,1.30
2018-03-28T17:53:44.868Z,1.43
2018-03-28T17:56:11.134Z,1.90
2018-03-28T17:58:37.371Z,1.40
2018-03-28T18:01:03.620Z,1.30
2018-03-28T18:03:29.838Z,1.60
2018-03-28T18:05:57.023Z,1.50
2018-03-28T18:08:23.252Z,1.83
2018-03-28T18:10:49.461Z,1.43
2018-03-28T18:13:15.708Z,2.10
2018-03-28T18:15:41.977Z,2.37
2018-03-28T18:18:08.188Z,2.10
2018-03-28T18:20:34.410Z,1.90
2018-03-28T18:23:00.641Z,2.00
2018-03-28T18:25:26.904Z,2.00
2018-03-28T18:27:53.087Z,2.13
2018-03-28T18:30:19.308Z,2.90
2018-03-28T18:32:45.518Z,6.57
2018-03-28T18:35:11.746Z,3.37
2018-03-28T18:37:38.014Z,1.80
2018-03-28T18:40:04.245Z,2.33
2018-03-28T18:42:30.523Z,2.63
2018-03-28T18:44:57.479Z,2.90
2018-03-28T18:47:23.717Z,2.30
2018-03-28T18:49:49.944Z,2.20
2018-03-28T18:52:16.141Z,1.70
2018-03-28T18:54:43.156Z,2.23
2018-03-28T18:57:09.404Z,2.07
2018-03-28T18:59:35.624Z,1.83
2018-03-28T19:02:01.869Z,1.73
2018-03-28T19:04:28.865Z,2.13
2018-03-28T19:06:55.120Z,2.20
2018-03-28T19:09:21.345Z,2.30
2018-03-28T19:11:47.679Z,2.10
2018-03-28T19:14:13.902Z,1.87
2018-03-28T19:16:40.192Z,1.77
2018-03-28T19:19:06.427Z,1.80
2018-03-28T19:21:32.758Z,1.93
2018-03-28T19:23:59.005Z,2.40
2018-03-28T19:26:25.250Z,2.40
2018-03-28T19:28:51.447Z,1.93
2018-03-28T19:31:17.656Z,1.47
2018-03-28T19:33:43.910Z,1.87
2018-03-28T19:36:10.145Z,1.20
2018-03-28T19:38:36.429Z,1.70
2018-03-28T19:41:02.673Z,1.40
2018-03-28T19:43:28.921Z,1.47
2018-03-28T19:45:55.164Z,1.63
2018-03-28T19:48:21.408Z,1.50
2018-03-28T19:50:47.635Z,1.60
2018-03-28T19:53:13.896Z,1.50
2018-03-28T19:55:40.169Z,1.70
2018-03-28T19:58:06.381Z,1.57
2018-03-28T20:00:32.946Z,0.87
2018-03-28T20:02:59.216Z,1.00
2018-03-28T20:05:25.652Z,0.90
2018-03-28T20:07:52.420Z,0.80
2018-03-28T20:10:19.581Z,0.80
2018-03-28T20:12:46.655Z,0.77
2018-03-28T20:15:12.866Z,0.73
2018-03-28T20:17:39.161Z,0.60
2018-03-28T20:20:05.470Z,1.33
2018-03-28T20:22:31.773Z,0.90
2018-03-28T20:24:58.112Z,0.80
2018-03-28T20:27:24.371Z,0.80
2018-03-28T20:29:50.649Z,0.93
2018-03-28T20:32:17.037Z,0.80
2018-03-28T20:34:43.277Z,0.83
2018-03-28T20:37:09.602Z,0.90
2018-03-28T20:39:35.935Z,0.73
2018-03-28T20:42:02.278Z,0.80
2018-03-28T20:44:28.651Z,0.70
2018-03-28T20:46:54.926Z,0.90
2018-03-28T20:49:21.204Z,0.80
2018-03-28T20:51:47.565Z,1.00
2018-03-28T20:54:14.605Z,0.93
2018-03-28T20:56:40.798Z,0.80
2018-03-28T20:59:07.017Z,1.40
2018-03-28T21:01:33.263Z,1.07
2018-03-28T21:03:59.574Z,1.20
2018-03-28T21:06:25.860Z,1.23
2018-03-28T21:08:52.172Z,1.20
2018-03-28T21:11:18.524Z,1.07
2018-03-28T21:13:44.784Z,1.00
2018-03-28T21:16:11.078Z,1.40
2018-03-28T21:18:37.389Z,1.20
2018-03-28T21:21:04.451Z,1.00
2018-03-28T21:23:30.822Z,1.20
2018-03-28T21:25:57.094Z,2.17
2018-03-28T21:28:24.132Z,2.00
2018-03-28T21:30:50.392Z,2.10
2018-03-28T21:33:16.651Z,2.10
2018-03-28T21:35:42.954Z,2.07
2018-03-28T21:38:09.276Z,2.20
2018-03-28T21:40:35.474Z,2.53
2018-03-28T21:43:01.737Z,2.20
2018-03-28T21:45:28.000Z,2.10
2018-03-28T21:47:54.266Z,2.13
2018-03-28T21:50:21.217Z,1.50
2018-03-28T21:52:48.170Z,1.77
2018-03-28T21:55:15.095Z,2.27
2018-03-28T21:57:41.342Z,2.00
2018-03-28T22:00:08.315Z,1.73
2018-03-28T22:02:34.526Z,1.83
2018-03-28T22:05:00.735Z,1.73
2018-03-28T22:07:27.671Z,1.83
2018-03-28T22:09:54.623Z,1.90
2018-03-28T22:12:21.571Z,1.50
2018-03-28T22:14:48.569Z,1.90
2018-03-28T22:17:14.820Z,1.97
2018-03-28T22:19:41.066Z,1.60
2018-03-28T22:22:08.063Z,1.30
2018-03-28T22:24:34.296Z,1.80
2018-03-28T22:27:00.500Z,2.13
2018-03-28T22:29:26.765Z,1.27
2018-03-28T22:31:53.017Z,1.30
2018-03-28T22:34:20.258Z,1.10
2018-03-28T22:36:46.497Z,1.80
2018-03-28T22:39:12.729Z,1.40
2018-03-28T22:41:38.940Z,1.60
2018-03-28T22:44:05.195Z,1.13
2018-03-28T22:46:32.200Z,1.23
2018-03-28T22:48:58.443Z,1.30
2018-03-28T22:51:24.648Z,1.50
2018-03-28T22:53:50.872Z,1.23
2018-03-28T22:56:17.169Z,1.20
2018-03-28T22:58:43.363Z,1.93
2018-03-28T23:01:09.593Z,1.43
2018-03-28T23:03:36.563Z,1.60
2018-03-28T23:06:03.580Z,1.47
2018-03-28T23:08:29.797Z,1.33
2018-03-28T23:10:56.024Z,1.50
2018-03-28T23:13:22.303Z,1.90
2018-03-28T23:15:48.610Z,1.53
2018-03-28T23:18:15.604Z,1.77
2018-03-28T23:20:41.872Z,1.47
2018-03-28T23:23:08.106Z,1.67
2018-03-28T23:25:34.322Z,1.90
2018-03-28T23:28:00.598Z,1.70
2018-03-28T23:30:26.833Z,1.70
2018-03-28T23:32:53.080Z,1.70
2018-03-28T23:35:19.284Z,1.70
2018-03-28T23:37:45.516Z,1.60
2018-03-28T23:40:11.722Z,1.60
2018-03-28T23:42:38.723Z,2.00
2018-03-28T23:45:04.990Z,2.00
2018-03-28T23:47:31.942Z,1.87
2018-03-28T23:49:58.927Z,2.00
2018-03-28T23:52:25.127Z,1.83
2018-03-28T23:54:51.356Z,2.10
2018-03-28T23:57:17.596Z,2.27
2018-03-28T23:59:43.862Z,1.90
